Hlavní strana
METAR-TAF:

METAR-TAF

Letiště :

Oujda, Maroko

zeměpisná šířka: 34-47N, zeměpisná délka: 001-56W, výška: 468 m

Aktuální stav počasí

Zpráva byla vytvořena před 26 minutami, v 18:00 UTC
Severozápadní vítr 5 kt
Teplota 12°C
Vlhkost vzduchu 94%
Tlak 1020 hPa
Viditelnost 10 km a více
Skoro jasno ve výšce 2300 ft
Polojasno ve výšce 23000 ft

METAR: GMFO 141800Z 31005KT 9999 FEW023 SCT230 12/11 Q1020 NOSIG

Čas: 19:26 (18:26 UTC)

Předpověď počasí

Zpráva byla vytvořena před 1 hodinou a 26 minutami, v 17:00 UTC
Předpověď platná od 14 v 18 UTC do 15 v 24 UTC
Jihojihozápadní vítr 9 kt
Viditelnost 10 km a více
Skoro jasno ve výšce 2600 ft
Polojasno ve výšce 23000 ft
Pravděpodobnost 30% :
Dočasný
od 15 v 02 UTC do 15 v 07 UTC
Jihojihozápadní vítr 4 kt
Viditelnost: 4000 m
Polojasno ve výšce 800 ft
kouřmo

TAF: GMFO 141700Z 1418/1524 20009KT 9999 FEW026 SCT230 PROB30 TEMPO 1502/1507 20004KT 4000 BR SCT008

Stav a předpovědi počasí z více než 4 000 letišť (zprávy METAR a TAF).

Červené a žluté tečky na mapě představují dostupné meteorologické stanice.

Když kurzor umístíte na tečku, zobrazí se název stanice.

Pak kliknutím zobrazíte stav a předpověď počasí.

Chcete-li změnit mapu, kliknutím na zelené tlačítko se znaménkem +mapu přiblížíte, kliknutím na zelené tlačítko se znaménkem – mapu oddálíte a kliknutím na zelené šipky přejdete na sousední mapy.


METAR-TAF: